< < Back
Terminal Aerodrome Forecast


Current Version              Previous Versions:   1  2  3  4  5  6  7  8  9  

Terminal Aerodrome Forecast

814
FTUS44 KBMX 191100
TAFANB
TAF
KANB 191120Z 1912/2012 06004KT 6SM -SHRA BR OVC040
     FM191800 06008G16KT P6SM VCSH OVC060
     FM200000 03003KT P6SM SCT050
     FM200600 00000KT P6SM SKC=



Latest METAR

709
SAUS70 KWBC 201000 RRE
MTRANB
METAR KANB 200953Z AUTO 07003KT 10SM CLR 09/07 A3019 RMK AO2 SLP221
T00940067


USA.gov is the U.S. government's official web portal to all federal, state and local government web resources and services.